createdAt,value
2022-10-02T00:00:13.385Z,78.00
2022-10-02T00:02:54.654Z,77.40
2022-10-02T00:05:27.691Z,77.40
2022-10-02T00:08:02.580Z,77.40
2022-10-02T00:10:55.325Z,77.50
2022-10-02T00:14:01.418Z,77.50
2022-10-02T00:17:03.536Z,77.90
2022-10-02T00:19:30.757Z,77.40
2022-10-02T00:22:16.686Z,77.40
2022-10-02T00:24:48.464Z,77.60
2022-10-02T00:28:14.906Z,77.50
2022-10-02T00:31:16.178Z,77.90
2022-10-02T00:34:09.118Z,77.60
2022-10-02T00:37:02.941Z,77.30
2022-10-02T00:39:53.966Z,77.70
2022-10-02T00:42:40.475Z,77.40
2022-10-02T00:45:29.002Z,77.70
2022-10-02T00:48:55.620Z,77.70
2022-10-02T00:55:22.134Z,77.20
2022-10-02T00:58:38.629Z,77.20
2022-10-02T01:01:37.150Z,77.60
2022-10-02T01:04:11.739Z,77.70
2022-10-02T01:06:38.975Z,77.30
2022-10-02T01:09:06.145Z,77.30
2022-10-02T01:11:34.473Z,77.30
2022-10-02T01:14:02.269Z,77.20
2022-10-02T01:16:30.083Z,77.20
2022-10-02T01:18:57.502Z,77.30
2022-10-02T01:21:43.127Z,77.30
2022-10-02T01:24:19.973Z,77.50
2022-10-02T01:26:47.734Z,77.20
2022-10-02T01:29:14.984Z,77.10
2022-10-02T01:31:43.039Z,77.20
2022-10-02T01:34:10.892Z,77.20
2022-10-02T01:36:38.699Z,77.10
2022-10-02T01:39:06.216Z,77.10
2022-10-02T01:41:43.538Z,77.10
2022-10-02T01:44:11.892Z,77.10
2022-10-02T01:46:56.445Z,77.10
2022-10-02T01:49:26.518Z,77.20
2022-10-02T01:52:25.405Z,77.20
2022-10-02T01:55:22.649Z,77.70
2022-10-02T01:58:20.770Z,77.40
2022-10-02T02:01:21.988Z,77.30
2022-10-02T02:04:17.412Z,77.80
2022-10-02T02:07:05.300Z,77.30
2022-10-02T02:09:53.590Z,77.80
2022-10-02T02:12:46.470Z,77.70
2022-10-02T02:15:26.465Z,78.20
2022-10-02T02:18:06.676Z,77.80
2022-10-02T02:20:43.929Z,77.60
2022-10-02T02:23:23.273Z,77.70
2022-10-02T02:25:57.323Z,77.90
2022-10-02T02:28:27.187Z,77.80
2022-10-02T02:30:56.066Z,77.80
2022-10-02T02:33:56.689Z,77.90
2022-10-02T02:36:32.494Z,78.50
2022-10-02T02:39:08.039Z,77.90
2022-10-02T02:41:42.089Z,78.00
2022-10-02T02:44:24.978Z,78.10
2022-10-02T02:47:14.887Z,78.40
2022-10-02T02:49:47.580Z,78.30
2022-10-02T02:52:49.250Z,78.10
2022-10-02T02:55:25.414Z,78.80
2022-10-02T02:58:24.834Z,78.20
2022-10-02T03:00:52.111Z,78.20
2022-10-02T03:03:19.387Z,78.10
2022-10-02T03:05:53.321Z,78.20
2022-10-02T03:08:27.314Z,78.20
2022-10-02T03:11:11.146Z,78.30
2022-10-02T03:14:02.773Z,78.40
2022-10-02T03:16:38.999Z,78.60
2022-10-02T03:19:24.401Z,78.10
2022-10-02T03:22:21.035Z,78.10
2022-10-02T03:25:12.669Z,78.30
2022-10-02T03:27:57.313Z,78.30
2022-10-02T03:30:26.751Z,78.00
2022-10-02T03:32:56.342Z,77.80
2022-10-02T03:35:25.153Z,77.90
2022-10-02T03:37:57.535Z,77.80
2022-10-02T03:40:26.211Z,77.80
2022-10-02T03:42:58.437Z,77.80
2022-10-02T03:45:50.007Z,77.80
2022-10-02T03:48:17.746Z,77.90
2022-10-02T03:50:46.433Z,77.60
2022-10-02T03:53:24.945Z,77.60
2022-10-02T03:56:23.613Z,77.80
2022-10-02T03:58:54.083Z,78.10
2022-10-02T04:01:33.356Z,77.60
2022-10-02T04:04:27.253Z,77.60
2022-10-02T04:07:03.193Z,77.90
2022-10-02T04:10:23.796Z,77.50
2022-10-02T04:12:55.903Z,77.80
2022-10-02T04:15:31.202Z,77.40
2022-10-02T04:18:10.545Z,77.50
2022-10-02T04:20:57.416Z,77.50
2022-10-02T04:23:34.346Z,77.60
2022-10-02T04:26:14.828Z,77.50
2022-10-02T04:28:50.931Z,77.60
2022-10-02T04:31:18.007Z,77.50
2022-10-02T04:33:45.211Z,77.40
2022-10-02T04:36:27.348Z,77.50
2022-10-02T04:39:12.818Z,77.50
2022-10-02T04:42:24.145Z,77.80
2022-10-02T04:45:17.949Z,77.70
2022-10-02T04:48:21.094Z,77.20
2022-10-02T04:51:03.858Z,77.50
2022-10-02T04:54:14.083Z,77.40
2022-10-02T04:56:59.819Z,77.80
2022-10-02T04:59:57.671Z,77.50
2022-10-02T05:03:01.955Z,77.40
2022-10-02T05:05:47.629Z,77.60
2022-10-02T05:08:36.150Z,77.80
2022-10-02T05:11:38.472Z,77.50
2022-10-02T05:14:21.527Z,77.90
2022-10-02T05:17:22.719Z,77.40
2022-10-02T05:20:14.594Z,77.80
2022-10-02T05:23:07.987Z,77.40
2022-10-02T05:26:14.523Z,77.80
2022-10-02T05:28:53.644Z,77.30
2022-10-02T05:31:47.670Z,77.30
2022-10-02T05:34:31.314Z,77.50
2022-10-02T05:37:34.739Z,77.30
2022-10-02T05:40:33.246Z,77.60
2022-10-02T05:43:10.723Z,77.60
2022-10-02T05:45:50.458Z,77.30
2022-10-02T05:48:40.696Z,77.40
2022-10-02T05:51:39.837Z,77.40
2022-10-02T05:54:28.374Z,77.60
2022-10-02T05:57:26.407Z,77.40
2022-10-02T06:00:21.083Z,77.30
2022-10-02T06:03:18.455Z,77.50
2022-10-02T06:06:29.139Z,77.80
2022-10-02T06:09:10.987Z,77.80
2022-10-02T06:12:00.490Z,77.50
2022-10-02T06:15:01.477Z,77.50
2022-10-02T06:17:38.518Z,77.90
2022-10-02T06:20:28.698Z,77.60
2022-10-02T06:23:26.997Z,78.10
2022-10-02T06:26:15.704Z,78.20
2022-10-02T06:28:52.690Z,77.80
2022-10-02T06:32:14.085Z,77.80
2022-10-02T06:34:44.632Z,78.00
2022-10-02T06:37:36.911Z,77.80
2022-10-02T06:40:41.907Z,78.20
2022-10-02T06:43:27.207Z,78.10
2022-10-02T06:46:22.983Z,78.20
2022-10-02T06:49:26.413Z,78.30
2022-10-02T06:52:38.327Z,78.20
2022-10-02T06:55:32.291Z,78.40
2022-10-02T06:58:27.324Z,78.20
2022-10-02T07:01:09.271Z,78.30
2022-10-02T07:03:51.323Z,78.20
2022-10-02T07:06:49.065Z,78.60
2022-10-02T07:09:40.600Z,78.20
2022-10-02T07:12:27.645Z,78.00
2022-10-02T07:15:44.750Z,78.30
2022-10-02T07:19:21.997Z,78.30
2022-10-02T07:22:42.773Z,78.50
2022-10-02T07:25:30.032Z,78.20
2022-10-02T07:28:37.743Z,78.50
2022-10-02T07:31:29.386Z,78.30
2022-10-02T07:34:13.485Z,78.30
2022-10-02T07:36:58.641Z,78.20
2022-10-02T07:39:50.333Z,78.70
2022-10-02T07:42:20.057Z,78.60
2022-10-02T07:45:08.012Z,78.30
2022-10-02T07:48:19.731Z,78.40
2022-10-02T07:51:02.832Z,78.90
2022-10-02T07:53:46.839Z,78.40
2022-10-02T07:56:20.283Z,78.80
2022-10-02T07:59:03.995Z,78.40
2022-10-02T08:01:36.606Z,78.50
2022-10-02T08:04:24.818Z,78.30
2022-10-02T08:07:02.144Z,78.30
2022-10-02T08:09:38.446Z,78.10
2022-10-02T08:12:40.763Z,78.00
2022-10-02T08:15:17.324Z,78.10
2022-10-02T08:17:58.782Z,77.80
2022-10-02T08:20:44.439Z,77.70
2022-10-02T08:23:37.819Z,77.70
2022-10-02T08:26:39.940Z,77.70
2022-10-02T08:29:17.941Z,77.60
2022-10-02T08:31:45.306Z,77.60
2022-10-02T08:34:22.239Z,77.60
2022-10-02T08:37:20.469Z,77.80
2022-10-02T08:40:22.499Z,77.70
2022-10-02T08:43:11.852Z,77.50
2022-10-02T08:46:13.309Z,77.40
2022-10-02T08:49:40.549Z,77.60
2022-10-02T08:52:42.551Z,77.70
2022-10-02T08:55:24.688Z,77.70
2022-10-02T08:58:16.854Z,77.70
2022-10-02T09:01:05.150Z,77.70
2022-10-02T09:03:45.771Z,77.90
2022-10-02T09:07:05.179Z,77.80
2022-10-02T09:10:08.342Z,78.20
2022-10-02T09:13:31.624Z,77.90
2022-10-02T09:17:02.417Z,78.20
2022-10-02T09:20:04.689Z,78.50
2022-10-02T09:23:13.559Z,78.30
2022-10-02T09:25:57.067Z,78.30
2022-10-02T09:28:51.982Z,78.10
2022-10-02T09:31:41.230Z,78.20
2022-10-02T09:35:11.697Z,78.10
2022-10-02T09:38:07.266Z,78.60
2022-10-02T09:40:53.628Z,78.40
2022-10-02T09:44:06.343Z,78.20
2022-10-02T09:47:10.486Z,78.40
2022-10-02T09:50:18.739Z,78.50
2022-10-02T09:53:12.981Z,78.40
2022-10-02T09:56:25.766Z,78.40
2022-10-02T09:59:27.933Z,78.40
2022-10-02T10:02:32.482Z,78.40
2022-10-02T10:05:08.845Z,78.20
2022-10-02T10:08:28.544Z,78.00
2022-10-02T10:11:07.924Z,78.40
2022-10-02T10:14:49.011Z,78.20
2022-10-02T10:17:56.811Z,78.70
2022-10-02T10:20:45.033Z,78.70
2022-10-02T10:23:45.968Z,78.30
2022-10-02T10:26:22.259Z,78.70
2022-10-02T10:29:10.328Z,78.60
2022-10-02T10:32:06.864Z,78.60
2022-10-02T10:35:01.469Z,78.50
2022-10-02T10:38:05.109Z,78.60
2022-10-02T10:40:53.986Z,78.40
2022-10-02T10:43:52.461Z,78.70
2022-10-02T10:46:25.084Z,78.80
2022-10-02T10:49:35.725Z,78.50
2022-10-02T10:52:19.836Z,78.70
2022-10-02T10:55:12.616Z,78.50
2022-10-02T10:57:55.443Z,78.50
2022-10-02T11:00:47.672Z,78.60
2022-10-02T11:03:52.328Z,78.50
2022-10-02T11:07:08.007Z,78.90
2022-10-02T11:10:07.714Z,78.70
2022-10-02T11:13:07.094Z,78.80
2022-10-02T11:16:07.885Z,78.40
2022-10-02T11:19:00.270Z,78.30
2022-10-02T11:21:39.932Z,78.60
2022-10-02T11:25:02.023Z,78.60
2022-10-02T11:28:09.315Z,78.90
2022-10-02T11:30:56.580Z,78.90
2022-10-02T11:34:09.793Z,78.60
2022-10-02T11:37:17.308Z,78.30
2022-10-02T11:40:18.125Z,78.20
2022-10-02T11:43:00.670Z,78.10
2022-10-02T11:46:01.046Z,77.80
2022-10-02T11:48:49.836Z,77.80
2022-10-02T11:51:50.933Z,77.70
2022-10-02T11:54:33.279Z,77.90
2022-10-02T11:57:35.138Z,77.80
2022-10-02T12:00:37.107Z,77.90
2022-10-02T12:03:37.285Z,77.70
2022-10-02T12:06:50.522Z,77.50
2022-10-02T12:10:20.250Z,77.60
2022-10-02T12:13:12.142Z,77.80
2022-10-02T12:16:01.862Z,77.70
2022-10-02T12:18:50.482Z,78.00
2022-10-02T12:22:01.799Z,78.30
2022-10-02T12:25:19.963Z,78.70
2022-10-02T12:28:36.613Z,78.80
2022-10-02T12:31:28.086Z,78.70
2022-10-02T12:34:08.564Z,78.30
2022-10-02T12:36:58.294Z,78.30
2022-10-02T12:39:28.288Z,78.30
2022-10-02T12:42:22.759Z,78.20
2022-10-02T12:45:11.541Z,78.00
2022-10-02T12:48:09.059Z,77.90
2022-10-02T12:51:27.459Z,78.10
2022-10-02T12:54:40.914Z,77.80
2022-10-02T12:57:43.159Z,77.20
2022-10-02T13:00:22.211Z,76.90
2022-10-02T13:03:05.702Z,76.80
2022-10-02T13:05:53.132Z,76.90
2022-10-02T13:08:48.645Z,76.90
2022-10-02T13:11:45.997Z,76.90
2022-10-02T13:15:03.048Z,77.10
2022-10-02T13:18:06.124Z,77.10
2022-10-02T13:20:51.254Z,77.00
2022-10-02T13:23:52.776Z,77.00
2022-10-02T13:26:54.729Z,76.90
2022-10-02T13:29:52.447Z,76.50
2022-10-02T13:33:15.565Z,76.30
2022-10-02T13:35:53.395Z,76.40
2022-10-02T13:39:05.688Z,76.30
2022-10-02T13:42:37.239Z,76.30
2022-10-02T13:45:44.171Z,76.30
2022-10-02T13:48:34.348Z,76.70
2022-10-02T13:51:24.084Z,76.90
2022-10-02T13:54:14.827Z,77.00
2022-10-02T13:56:51.521Z,76.60
2022-10-02T13:59:52.259Z,76.90
2022-10-02T14:02:46.424Z,76.70
2022-10-02T14:05:42.083Z,76.50
2022-10-02T14:08:30.235Z,76.60
2022-10-02T14:11:49.267Z,76.30
2022-10-02T14:14:37.799Z,76.10
2022-10-02T14:17:19.425Z,76.50
2022-10-02T14:20:23.250Z,76.30
2022-10-02T14:22:59.171Z,75.90
2022-10-02T14:25:37.051Z,76.10
2022-10-02T14:28:26.265Z,75.90
2022-10-02T14:31:17.945Z,75.90
2022-10-02T14:34:26.524Z,75.60
2022-10-02T14:37:26.110Z,75.50
2022-10-02T14:39:55.097Z,75.40
2022-10-02T14:42:56.395Z,75.80
2022-10-02T14:46:03.226Z,75.90
2022-10-02T14:48:55.238Z,76.10
2022-10-02T14:52:06.758Z,75.80
2022-10-02T14:55:20.460Z,75.80
2022-10-02T14:58:06.248Z,75.60
2022-10-02T15:01:21.414Z,75.80
2022-10-02T15:04:04.810Z,75.60
2022-10-02T15:07:00.370Z,75.90
2022-10-02T15:10:00.690Z,75.90
2022-10-02T15:12:44.629Z,75.70
2022-10-02T15:15:48.162Z,75.90
2022-10-02T15:18:55.963Z,76.00
2022-10-02T15:21:38.759Z,76.10
2022-10-02T15:24:48.822Z,76.00
2022-10-02T15:27:42.180Z,76.30
2022-10-02T15:30:21.946Z,76.30
2022-10-02T15:33:25.599Z,76.40
2022-10-02T15:36:47.061Z,76.70
2022-10-02T15:39:17.011Z,76.70
2022-10-02T15:42:07.381Z,76.60
2022-10-02T15:44:46.250Z,76.80
2022-10-02T15:47:57.711Z,76.80
2022-10-02T15:50:30.871Z,76.90
2022-10-02T15:53:24.149Z,76.70
2022-10-02T15:56:19.611Z,76.80
2022-10-02T15:59:13.050Z,76.80
2022-10-02T16:02:45.379Z,76.70
2022-10-02T16:05:54.665Z,77.00
2022-10-02T16:09:05.851Z,77.00
2022-10-02T16:12:09.065Z,77.00
2022-10-02T16:14:48.825Z,76.90
2022-10-02T16:17:43.094Z,76.90
2022-10-02T16:20:15.995Z,77.10
2022-10-02T16:23:20.247Z,77.00
2022-10-02T16:26:26.791Z,77.20
2022-10-02T16:29:34.759Z,77.50
2022-10-02T16:32:31.302Z,77.60
2022-10-02T16:35:53.095Z,77.30
2022-10-02T16:38:49.489Z,77.50
2022-10-02T16:41:38.466Z,77.50
2022-10-02T16:44:38.363Z,77.40
2022-10-02T16:47:05.534Z,77.70
2022-10-02T16:50:25.493Z,77.30
2022-10-02T16:53:09.248Z,77.90
2022-10-02T16:55:45.738Z,77.50
2022-10-02T16:58:32.827Z,77.50
2022-10-02T17:01:22.403Z,77.40
2022-10-02T17:04:28.122Z,77.50
2022-10-02T17:07:15.119Z,78.00
2022-10-02T17:10:02.408Z,77.70
2022-10-02T17:12:47.225Z,77.90
2022-10-02T17:15:48.131Z,77.80
2022-10-02T17:18:45.432Z,78.10
2022-10-02T17:21:28.488Z,77.90
2022-10-02T17:24:32.280Z,78.10
2022-10-02T17:27:30.099Z,78.00
2022-10-02T17:30:16.973Z,78.10
2022-10-02T17:32:47.168Z,78.20
2022-10-02T17:35:24.745Z,78.00
2022-10-02T17:38:25.455Z,78.10
2022-10-02T17:41:21.373Z,78.50
2022-10-02T17:44:06.430Z,78.20
2022-10-02T17:47:13.563Z,78.40
2022-10-02T17:50:17.961Z,78.50
2022-10-02T17:53:29.239Z,78.40
2022-10-02T17:56:30.191Z,78.50
2022-10-02T17:59:53.403Z,78.50
2022-10-02T18:02:55.124Z,78.70
2022-10-02T18:05:50.991Z,78.30
2022-10-02T18:08:54.450Z,78.50
2022-10-02T18:12:08.786Z,78.40
2022-10-02T18:15:06.427Z,79.00
2022-10-02T18:18:20.476Z,78.40
2022-10-02T18:21:21.358Z,78.50
2022-10-02T18:24:45.132Z,78.60
2022-10-02T18:27:53.567Z,78.90
2022-10-02T18:30:24.601Z,78.60
2022-10-02T18:33:26.038Z,78.40
2022-10-02T18:36:20.552Z,78.90
2022-10-02T18:39:03.376Z,78.70
2022-10-02T18:41:33.779Z,78.60
2022-10-02T18:44:29.543Z,78.60
2022-10-02T18:47:38.103Z,79.10
2022-10-02T18:50:35.709Z,78.80
2022-10-02T18:53:25.122Z,78.70
2022-10-02T18:56:13.464Z,78.90
2022-10-02T18:59:02.860Z,79.30
2022-10-02T19:02:03.159Z,79.00
2022-10-02T19:05:05.675Z,79.40
2022-10-02T19:07:45.220Z,79.00
2022-10-02T19:10:29.746Z,79.20
2022-10-02T19:13:17.617Z,78.70
2022-10-02T19:15:48.517Z,78.80
2022-10-02T19:18:28.200Z,78.80
2022-10-02T19:21:13.931Z,79.00
2022-10-02T19:24:05.543Z,79.20
2022-10-02T19:26:36.759Z,79.60
2022-10-02T19:29:19.386Z,79.00
2022-10-02T19:31:47.139Z,79.10
2022-10-02T19:34:25.765Z,79.00
2022-10-02T19:36:58.336Z,79.10
2022-10-02T19:39:41.397Z,79.10
2022-10-02T19:42:16.196Z,79.10
2022-10-02T19:45:03.914Z,79.10
2022-10-02T19:47:49.788Z,79.40
2022-10-02T19:50:42.159Z,79.40
2022-10-02T19:53:40.829Z,79.10
2022-10-02T19:56:16.474Z,79.50
2022-10-02T19:58:52.554Z,79.10
2022-10-02T20:01:24.857Z,79.20
2022-10-02T20:04:01.037Z,79.20
2022-10-02T20:06:34.723Z,79.30
2022-10-02T20:09:19.433Z,79.20
2022-10-02T20:12:06.569Z,79.20
2022-10-02T20:14:51.859Z,79.20
2022-10-02T20:17:19.465Z,79.20
2022-10-02T20:20:03.978Z,79.10
2022-10-02T20:22:55.801Z,79.60
2022-10-02T20:25:50.822Z,79.20
2022-10-02T20:28:35.091Z,79.70
2022-10-02T20:31:07.561Z,79.30
2022-10-02T20:33:56.671Z,79.20
2022-10-02T20:36:30.379Z,79.70
2022-10-02T20:39:03.914Z,79.30
2022-10-02T20:41:54.715Z,79.30
2022-10-02T20:44:21.966Z,79.40
2022-10-02T20:47:23.359Z,79.30
2022-10-02T20:50:18.113Z,79.40
2022-10-02T20:53:14.461Z,79.60
2022-10-02T20:56:06.757Z,79.70
2022-10-02T20:58:58.335Z,79.70
2022-10-02T21:01:55.181Z,79.70
2022-10-02T21:05:06.210Z,79.40
2022-10-02T21:07:59.818Z,79.40
2022-10-02T21:10:48.768Z,79.10
2022-10-02T21:14:00.220Z,79.70
2022-10-02T21:17:14.271Z,79.90
2022-10-02T21:20:09.293Z,79.60
2022-10-02T21:23:13.245Z,79.50
2022-10-02T21:26:41.142Z,79.80
2022-10-02T21:29:29.756Z,79.80
2022-10-02T21:32:39.322Z,79.50
2022-10-02T21:35:49.941Z,79.50
2022-10-02T21:38:57.702Z,80.00
2022-10-02T21:42:13.483Z,79.80
2022-10-02T21:45:04.465Z,79.90
2022-10-02T21:47:47.874Z,79.70
2022-10-02T21:50:48.459Z,79.90
2022-10-02T21:53:33.694Z,79.90
2022-10-02T21:56:39.833Z,79.70
2022-10-02T21:59:31.305Z,80.00
2022-10-02T22:02:08.628Z,79.90
2022-10-02T22:05:29.436Z,79.70
2022-10-02T22:08:20.948Z,79.80
2022-10-02T22:11:00.031Z,79.80
2022-10-02T22:13:38.761Z,79.90
2022-10-02T22:16:28.600Z,79.90
2022-10-02T22:19:07.532Z,80.10
2022-10-02T22:22:22.405Z,79.70
2022-10-02T22:25:38.887Z,80.20
2022-10-02T22:28:38.095Z,80.00
2022-10-02T22:32:34.608Z,79.90
2022-10-02T22:35:31.721Z,80.00
2022-10-02T22:38:34.375Z,80.00
2022-10-02T22:41:16.303Z,80.00
2022-10-02T22:44:14.366Z,79.80
2022-10-02T22:47:14.412Z,79.90
2022-10-02T22:49:51.800Z,80.20
2022-10-02T22:52:47.529Z,79.90
2022-10-02T22:55:55.285Z,80.00
2022-10-02T22:58:42.661Z,80.50
2022-10-02T23:01:19.747Z,80.20
2022-10-02T23:03:59.150Z,80.00
2022-10-02T23:06:45.283Z,80.00
2022-10-02T23:09:26.578Z,80.20
2022-10-02T23:12:11.944Z,80.10
2022-10-02T23:15:11.976Z,80.20
2022-10-02T23:18:12.140Z,80.30
2022-10-02T23:20:50.245Z,80.30
2022-10-02T23:23:36.645Z,80.00
2022-10-02T23:26:36.171Z,80.10
2022-10-02T23:29:55.078Z,80.10
2022-10-02T23:32:40.098Z,80.60
2022-10-02T23:35:39.002Z,80.00
2022-10-02T23:38:31.236Z,80.50
2022-10-02T23:41:23.179Z,80.50
2022-10-02T23:44:22.894Z,80.70
2022-10-02T23:46:49.962Z,80.40
2022-10-02T23:49:43.310Z,80.00
2022-10-02T23:52:23.112Z,80.60
2022-10-02T23:55:33.855Z,80.20
2022-10-02T23:58:36.924Z,80.50
